Time;durP1;ratioP1;P1;durP2;ratioP2;P2;SDS_P1;SDS_P2;PMS_P1;PMS_P2;Temp;Humidity;BMP_temperature;BMP_pressure;BME280_temperature;BME280_humidity;BME280_pressure;Samples;Min_cycle;Max_cycle;Signal;HPM_P1;HPM_P2
2021/03/11 00:00:52;;;;;;;270.20;94.63;;;-3.00;99.90;;;;;;5034401;28;20305;-88
2021/03/11 00:03:19;;;;;;;321.37;110.40;;;-3.30;99.90;;;;;;5016944;28;20553;-87
2021/03/11 00:05:45;;;;;;;363.70;116.20;;;-2.30;99.90;;;;;;5016925;28;20187;-87
2021/03/11 00:08:11;;;;;;;349.83;117.37;;;-3.00;99.90;;;;;;5034405;28;20196;-87
2021/03/11 00:10:38;;;;;;;337.77;112.53;;;-3.00;99.90;;;;;;5034746;28;20173;-85
2021/03/11 00:13:06;;;;;;;332.07;110.43;;;-4.30;99.90;;;;;;5017391;28;20181;-86
2021/03/11 00:15:32;;;;;;;320.67;109.50;;;-4.30;99.90;;;;;;5016573;28;20248;-88
2021/03/11 00:17:58;;;;;;;330.83;111.67;;;-2.60;99.90;;;;;;5000462;28;20184;-88
2021/03/11 00:20:28;;;;;;;312.13;107.27;;;-4.30;99.90;;;;;;5000302;28;20660;-87
2021/03/11 00:22:54;;;;;;;329.00;107.63;;;-3.00;99.90;;;;;;5034495;28;20172;-88
2021/03/11 00:25:22;;;;;;;320.30;110.53;;;-3.80;99.90;;;;;;5000196;28;20301;-87
2021/03/11 00:27:49;;;;;;;321.97;110.77;;;-4.40;99.90;;;;;;5034222;28;20200;-87
2021/03/11 00:30:16;;;;;;;313.03;110.30;;;-4.40;99.90;;;;;;5033681;28;20707;-87
2021/03/11 00:32:41;;;;;;;325.97;113.27;;;-4.40;99.90;;;;;;5034218;28;20176;-88
2021/03/11 00:35:10;;;;;;;349.60;117.70;;;-2.50;99.90;;;;;;5034060;28;20269;-87
2021/03/11 00:37:37;;;;;;;358.23;122.43;;;-4.40;99.90;;;;;;5016727;28;20673;-88
2021/03/11 00:40:08;;;;;;;335.03;112.67;;;-4.50;99.90;;;;;;5033787;28;20180;-88
2021/03/11 00:42:34;;;;;;;324.03;114.17;;;-4.50;99.90;;;;;;4999648;28;20188;-88
2021/03/11 00:45:00;;;;;;;338.57;113.73;;;-4.50;99.90;;;;;;5016027;28;20555;-88
2021/03/11 00:47:26;;;;;;;351.03;118.50;;;-4.50;99.90;;;;;;4999711;28;20222;-88
2021/03/11 00:49:51;;;;;;;339.60;117.93;;;-4.50;99.90;;;;;;5016170;28;20583;-88
2021/03/11 00:52:17;;;;;;;366.53;122.60;;;-4.50;99.90;;;;;;4999568;28;20187;-88
2021/03/11 00:54:43;;;;;;;363.93;124.27;;;-4.50;99.90;;;;;;5016123;28;20184;-87
2021/03/11 00:57:10;;;;;;;344.03;119.40;;;-4.50;99.90;;;;;;5016117;28;20198;-87
2021/03/11 00:59:36;;;;;;;326.10;113.50;;;-4.60;99.90;;;;;;5032514;28;20281;-88
2021/03/11 01:02:03;;;;;;;283.10;102.90;;;-4.60;99.90;;;;;;5033782;28;20567;-88
2021/03/11 01:04:29;;;;;;;307.43;110.40;;;-4.60;99.90;;;;;;5016145;28;20201;-87
2021/03/11 01:06:55;;;;;;;319.60;107.13;;;-4.60;99.90;;;;;;5033919;28;20207;-87
2021/03/11 01:09:21;;;;;;;278.07;101.20;;;-4.60;99.90;;;;;;5016123;28;20195;-87
2021/03/11 01:11:47;;;;;;;293.27;100.83;;;-4.70;99.90;;;;;;4999588;28;20269;-88
2021/03/11 01:14:13;;;;;;;308.67;105.43;;;-4.60;99.90;;;;;;5015499;28;20186;-88
2021/03/11 01:16:39;;;;;;;282.20;99.73;;;-3.50;99.90;;;;;;5033341;28;20654;-88
2021/03/11 01:19:05;;;;;;;292.83;99.13;;;-3.30;99.90;;;;;;5015747;28;20182;-88
2021/03/11 01:21:31;;;;;;;275.00;97.27;;;-4.80;99.90;;;;;;5032802;28;20187;-88
2021/03/11 01:23:57;;;;;;;283.70;94.03;;;-3.80;99.90;;;;;;5015749;28;20621;-88
2021/03/11 01:26:23;;;;;;;268.70;93.50;;;-4.70;99.90;;;;;;5015288;28;20210;-88
2021/03/11 01:28:49;;;;;;;281.07;94.77;;;-4.80;99.90;;;;;;5033603;28;20248;-87
2021/03/11 01:31:15;;;;;;;259.30;90.80;;;-4.90;99.90;;;;;;5015490;28;20560;-88
2021/03/11 01:33:41;;;;;;;230.00;85.23;;;-4.90;99.90;;;;;;5033297;28;20215;-88
2021/03/11 01:36:07;;;;;;;237.50;86.97;;;-4.90;99.90;;;;;;5033253;28;20190;-88
2021/03/11 01:38:32;;;;;;;253.23;87.40;;;-4.90;99.90;;;;;;5015470;28;20187;-88
2021/03/11 01:40:58;;;;;;;253.73;88.97;;;-4.90;99.90;;;;;;5033718;28;20183;-88
2021/03/11 01:43:24;;;;;;;255.40;86.63;;;-3.20;99.90;;;;;;5033195;28;20225;-88
2021/03/11 01:45:49;;;;;;;314.20;105.87;;;-5.00;99.90;;;;;;5033195;28;20182;-88
2021/03/11 01:48:15;;;;;;;337.43;111.40;;;-5.00;99.90;;;;;;5033456;28;20188;-88
2021/03/11 01:50:41;;;;;;;336.80;114.20;;;-5.00;99.90;;;;;;5015257;28;20197;-88
2021/03/11 01:53:08;;;;;;;319.07;110.90;;;-5.10;99.90;;;;;;5032814;28;20588;-87
2021/03/11 01:55:35;;;;;;;317.10;111.43;;;-5.10;99.90;;;;;;4998786;28;20194;-87
2021/03/11 01:58:00;;;;;;;283.07;100.33;;;-5.10;99.90;;;;;;5015430;28;20714;-88
2021/03/11 02:00:27;;;;;;;321.70;107.10;;;-3.50;99.90;;;;;;5014831;28;20325;-88
2021/03/11 02:02:53;;;;;;;337.90;113.97;;;-5.10;99.90;;;;;;4999165;28;20277;-88
2021/03/11 02:05:20;;;;;;;341.77;116.77;;;-5.10;99.90;;;;;;5015433;28;20539;-89
2021/03/11 02:07:46;;;;;;;314.80;114.97;;;-3.40;99.90;;;;;;5015263;28;20226;-88
2021/03/11 02:10:23;;;;;;;369.77;127.90;;;-5.20;99.90;;;;;;5015480;28;20194;-89
2021/03/11 02:13:13;;;;;;;350.17;118.20;;;-5.10;99.90;;;;;;5036561;28;20647;-88
2021/03/11 02:16:02;;;;;;;332.60;107.23;;;-5.10;99.90;;;;;;5018972;28;20717;-88
2021/03/11 02:18:32;;;;;;;304.13;99.93;;;-5.10;99.90;;;;;;5036622;28;20253;-87
2021/03/11 02:21:11;;;;;;;285.80;100.43;;;-5.10;99.90;;;;;;5019170;28;20186;-88
2021/03/11 02:24:13;;;;;;;263.57;92.80;;;-5.10;99.90;;;;;;5036421;28;20173;-87
2021/03/11 02:27:04;;;;;;;260.07;85.03;;;-5.10;99.90;;;;;;5018546;28;20216;-87
2021/03/11 02:29:29;;;;;;;251.90;85.53;;;-5.10;99.90;;;;;;5018440;28;20186;-87
2021/03/11 02:31:58;;;;;;;263.00;87.17;;;-5.10;99.90;;;;;;5018745;28;20561;-88
2021/03/11 02:34:28;;;;;;;233.90;80.23;;;-5.10;99.90;;;;;;5018378;28;20265;-87
2021/03/11 02:36:58;;;;;;;255.60;89.80;;;-5.10;99.90;;;;;;5018604;28;20215;-86
2021/03/11 02:39:26;;;;;;;249.53;91.03;;;-5.10;99.90;;;;;;5036158;28;20202;-87
2021/03/11 02:41:53;;;;;;;247.00;88.50;;;-5.00;99.90;;;;;;5036326;28;20233;-88
2021/03/11 02:44:21;;;;;;;256.10;88.40;;;-4.40;99.90;;;;;;5036275;28;20173;-88
2021/03/11 02:46:47;;;;;;;232.70;82.43;;;-5.00;99.90;;;;;;5018323;28;20214;-87
2021/03/11 02:49:14;;;;;;;245.37;83.20;;;-5.10;99.90;;;;;;5018639;28;20187;-88
2021/03/11 02:51:41;;;;;;;211.47;82.57;;;-5.10;99.90;;;;;;5001727;28;20323;-88
2021/03/11 02:54:07;;;;;;;233.53;86.20;;;-4.10;99.90;;;;;;5035896;28;20292;-87
2021/03/11 02:56:34;;;;;;;251.67;87.53;;;-5.20;99.90;;;;;;5035557;28;20711;-88
2021/03/11 02:59:02;;;;;;;244.40;84.33;;;-3.50;99.90;;;;;;5002096;28;20269;-87
2021/03/11 03:01:28;;;;;;;231.87;85.43;;;-5.20;99.90;;;;;;5035817;28;20177;-87
2021/03/11 03:03:54;;;;;;;232.53;80.60;;;-4.20;99.90;;;;;;5017989;28;20179;-88
2021/03/11 03:06:20;;;;;;;196.33;72.73;;;-4.20;99.90;;;;;;5001811;28;20214;-87
2021/03/11 03:08:47;;;;;;;215.83;75.77;;;-5.20;99.90;;;;;;5001453;28;20310;-87
2021/03/11 03:11:14;;;;;;;226.40;80.07;;;-5.20;99.90;;;;;;5035704;28;20181;-88
2021/03/11 03:13:43;;;;;;;235.00;83.97;;;-5.20;99.90;;;;;;5035555;28;20237;-87
2021/03/11 03:16:10;;;;;;;229.23;84.17;;;-5.20;99.90;;;;;;5035614;28;20180;-87
2021/03/11 03:18:36;;;;;;;212.10;79.10;;;-5.20;99.90;;;;;;5035128;28;20190;-88
2021/03/11 03:21:10;;;;;;;202.50;74.50;;;-5.20;99.90;;;;;;5019839;28;20182;-85
2021/03/11 03:23:38;;;;;;;211.43;74.90;;;-5.20;99.90;;;;;;5036957;28;20241;-86
2021/03/11 03:26:04;;;;;;;200.90;74.97;;;-5.20;99.90;;;;;;5002919;28;20190;-86
2021/03/11 03:28:30;;;;;;;190.47;69.80;;;-5.20;99.90;;;;;;5037361;28;20183;-85
2021/03/11 03:30:55;;;;;;;178.87;67.80;;;-5.20;99.90;;;;;;5037307;28;20178;-85
2021/03/11 03:33:21;;;;;;;182.53;69.73;;;-3.70;99.90;;;;;;5002803;28;20186;-85
2021/03/11 03:35:47;;;;;;;162.37;62.00;;;-5.20;99.90;;;;;;5018462;28;20214;-87
2021/03/11 03:38:14;;;;;;;179.97;69.63;;;-5.40;99.90;;;;;;5001106;28;20750;-87
2021/03/11 03:40:40;;;;;;;170.93;64.97;;;-5.20;99.90;;;;;;5000723;28;20186;-87
2021/03/11 03:43:12;;;;;;;161.47;66.10;;;-5.20;99.90;;;;;;5019503;28;20207;-85
2021/03/11 03:45:47;;;;;;;174.90;65.37;;;-3.90;99.90;;;;;;5018747;28;20179;-85
2021/03/11 03:48:17;;;;;;;175.60;66.10;;;-5.30;99.90;;;;;;5037162;28;20274;-85
2021/03/11 03:50:48;;;;;;;169.23;68.30;;;-5.30;99.90;;;;;;5019393;28;20182;-87
2021/03/11 03:53:23;;;;;;;170.73;66.87;;;-5.30;99.90;;;;;;5035285;28;20175;-88
2021/03/11 03:55:56;;;;;;;167.90;68.53;;;-5.30;99.90;;;;;;5034446;28;20217;-88
2021/03/11 03:58:23;;;;;;;179.47;68.20;;;-5.30;99.90;;;;;;5035024;28;20167;-87
2021/03/11 04:00:49;;;;;;;175.03;67.30;;;-5.30;99.90;;;;;;5016708;28;20237;-86
2021/03/11 04:03:15;;;;;;;178.77;67.83;;;-5.30;99.90;;;;;;5034539;28;20233;-86
2021/03/11 04:05:42;;;;;;;181.13;65.93;;;-5.30;99.90;;;;;;5016859;28;20190;-86
2021/03/11 04:08:09;;;;;;;175.10;65.00;;;-5.30;99.90;;;;;;5034473;28;20257;-87
2021/03/11 04:10:35;;;;;;;152.80;60.10;;;-3.90;99.90;;;;;;5016723;28;20186;-87
2021/03/11 04:13:01;;;;;;;174.70;68.23;;;-5.30;99.90;;;;;;5016830;28;20585;-87
2021/03/11 04:15:27;;;;;;;255.30;82.40;;;-5.30;99.90;;;;;;5000437;28;20213;-88
2021/03/11 04:17:53;;;;;;;212.67;78.50;;;-5.30;99.90;;;;;;4999361;28;20220;-85
2021/03/11 04:20:19;;;;;;;222.73;79.80;;;-5.50;99.90;;;;;;5034181;28;20182;-86
2021/03/11 04:22:46;;;;;;;207.03;75.10;;;-5.40;99.90;;;;;;5015931;28;20541;-87
2021/03/11 04:25:12;;;;;;;264.00;89.63;;;-5.40;99.90;;;;;;5000264;28;20187;-86
2021/03/11 04:27:38;;;;;;;258.47;93.30;;;-5.40;99.90;;;;;;5033738;28;20232;-86
2021/03/11 04:30:05;;;;;;;258.97;92.23;;;-5.40;99.90;;;;;;5000149;28;20180;-85
2021/03/11 04:32:34;;;;;;;243.07;87.83;;;-5.30;99.90;;;;;;4999624;28;20192;-86
2021/03/11 04:35:00;;;;;;;215.87;85.67;;;-5.30;99.90;;;;;;5015951;28;20201;-85
2021/03/11 04:37:26;;;;;;;175.20;73.43;;;-5.30;99.90;;;;;;4983931;28;20189;-86
2021/03/11 04:39:52;;;;;;;183.13;73.57;;;-3.50;99.90;;;;;;4999495;28;20190;-85
2021/03/11 04:42:18;;;;;;;185.23;70.63;;;-4.40;99.90;;;;;;5016183;28;20186;-86
2021/03/11 04:44:44;;;;;;;192.77;69.27;;;-3.70;99.90;;;;;;5013500;28;20182;-85
2021/03/11 04:47:11;;;;;;;180.97;65.43;;;-5.20;99.90;;;;;;5009560;28;20224;-86
2021/03/11 04:49:39;;;;;;;170.77;66.10;;;-3.60;99.90;;;;;;5012871;28;20195;-84
2021/03/11 04:52:05;;;;;;;161.97;64.37;;;-5.40;99.90;;;;;;5019032;28;20272;-84
2021/03/11 04:54:31;;;;;;;177.33;68.47;;;-5.40;99.90;;;;;;5013376;28;20713;-84
2021/03/11 04:56:56;;;;;;;178.83;69.10;;;-5.40;99.90;;;;;;5029755;28;20198;-85
2021/03/11 04:59:22;;;;;;;160.27;64.07;;;-4.20;99.90;;;;;;5013600;28;20243;-85
2021/03/11 05:01:54;;;;;;;158.43;64.57;;;-3.80;99.90;;;;;;5013529;28;20244;-86
2021/03/11 05:04:21;;;;;;;163.33;65.93;;;-4.40;99.90;;;;;;5031772;28;20267;-84
2021/03/11 05:06:46;;;;;;;171.73;65.10;;;-5.40;99.90;;;;;;5031179;28;20280;-85
2021/03/11 05:09:12;;;;;;;168.60;67.27;;;-5.40;99.90;;;;;;5013466;28;20527;-84
2021/03/11 05:11:38;;;;;;;182.97;71.83;;;-5.30;99.90;;;;;;5012455;28;20217;-85
2021/03/11 05:14:03;;;;;;;191.13;69.47;;;-5.30;99.90;;;;;;5030011;28;20193;-85
2021/03/11 05:16:29;;;;;;;185.93;71.27;;;-5.20;99.90;;;;;;5029674;28;20557;-85
2021/03/11 05:18:55;;;;;;;188.07;74.53;;;-5.20;99.90;;;;;;5013073;28;20182;-85
2021/03/11 05:21:20;;;;;;;197.10;75.37;;;-4.00;99.90;;;;;;5031345;28;20531;-85
2021/03/11 05:23:47;;;;;;;203.20;76.13;;;-5.20;99.90;;;;;;5013577;28;20190;-85
2021/03/11 05:26:13;;;;;;;204.67;78.10;;;-5.10;99.90;;;;;;5012886;28;20288;-86
2021/03/11 05:28:38;;;;;;;217.30;79.53;;;-3.70;99.90;;;;;;5030377;28;20709;-85
2021/03/11 05:31:04;;;;;;;261.17;89.30;;;-5.00;99.90;;;;;;5013580;28;20549;-88
2021/03/11 05:33:30;;;;;;;326.27;105.17;;;-2.80;99.90;;;;;;5013931;28;20188;-86
2021/03/11 05:35:55;;;;;;;266.87;91.90;;;-2.90;99.90;;;;;;5029549;28;20191;-86
2021/03/11 05:38:21;;;;;;;225.27;79.83;;;-4.80;99.90;;;;;;5031581;28;20190;-87
2021/03/11 05:40:51;;;;;;;210.70;71.03;;;-4.80;99.90;;;;;;5013476;28;20194;-86
2021/03/11 05:43:18;;;;;;;196.70;74.50;;;-4.70;99.90;;;;;;5013669;28;20232;-86
2021/03/11 05:45:44;;;;;;;174.97;65.93;;;-4.60;99.90;;;;;;5029426;28;20521;-86
2021/03/11 05:48:14;;;;;;;166.20;61.63;;;-4.50;99.90;;;;;;5017300;28;20234;-86
2021/03/11 05:50:41;;;;;;;146.53;57.03;;;-4.40;99.90;;;;;;5035256;28;20195;-86
2021/03/11 05:53:07;;;;;;;139.93;55.50;;;-4.30;99.90;;;;;;5020059;28;20187;-85
2021/03/11 05:55:35;;;;;;;144.07;54.17;;;-3.90;99.90;;;;;;5018797;28;20188;-84
2021/03/11 05:58:00;;;;;;;128.63;49.60;;;-4.00;99.90;;;;;;5016005;28;20525;-86
2021/03/11 06:00:26;;;;;;;113.67;47.03;;;-3.70;99.90;;;;;;5034078;28;20238;-84
2021/03/11 06:02:57;;;;;;;112.10;42.97;;;-3.70;99.90;;;;;;4999767;28;20645;-84
2021/03/11 06:05:23;;;;;;;126.90;52.63;;;-2.10;99.90;;;;;;5018495;28;20586;-84
2021/03/11 06:07:49;;;;;;;104.90;47.40;;;-3.40;99.90;;;;;;5015902;28;20215;-84
2021/03/11 06:10:17;;;;;;;97.40;41.53;;;-2.80;99.90;;;;;;5034071;28;20216;-84
2021/03/11 06:12:44;;;;;;;83.27;38.30;;;-3.10;99.90;;;;;;5015886;28;20240;-83
2021/03/11 06:15:31;;;;;;;104.37;44.13;;;-3.00;99.90;;;;;;5014417;28;20184;-83
2021/03/11 06:17:59;;;;;;;106.33;42.33;;;-2.80;99.90;;;;;;5032245;28;20266;-83
2021/03/11 06:20:25;;;;;;;86.23;37.73;;;-1.80;99.90;;;;;;5015752;28;20193;-84
2021/03/11 06:22:53;;;;;;;81.27;38.03;;;-1.10;99.90;;;;;;5034392;28;20237;-87
2021/03/11 06:25:20;;;;;;;87.37;39.33;;;-2.50;99.90;;;;;;5035825;28;20208;-84
2021/03/11 06:27:45;;;;;;;91.30;39.20;;;-1.30;99.90;;;;;;5053219;28;20211;-84
2021/03/11 06:30:35;;;;;;;77.30;34.73;;;-2.20;99.90;;;;;;5019457;28;20589;-85
2021/03/11 06:33:02;;;;;;;74.30;34.77;;;-2.00;99.90;;;;;;5035743;28;20182;-84
2021/03/11 06:35:28;;;;;;;81.63;36.53;;;-2.00;99.90;;;;;;5046191;28;20262;-86
2021/03/11 06:37:54;;;;;;;75.93;32.63;;;-1.20;99.90;;;;;;5055014;28;20790;-86
2021/03/11 06:40:22;;;;;;;75.83;34.23;;;-1.90;99.90;;;;;;5037858;28;20640;-88
2021/03/11 06:42:49;;;;;;;79.73;33.93;;;-1.80;99.90;;;;;;5037167;28;20187;-84
2021/03/11 06:45:26;;;;;;;70.53;32.53;;;0.30;99.90;;;;;;5055335;28;20187;-84
2021/03/11 06:48:13;;;;;;;53.83;26.17;;;-0.20;99.90;;;;;;5054885;28;20291;-86
2021/03/11 06:50:38;;;;;;;57.87;27.03;;;-1.20;99.90;;;;;;5040287;28;20187;-85
2021/03/11 06:53:04;;;;;;;62.13;28.07;;;-0.30;99.90;;;;;;5020501;28;20186;-85
2021/03/11 06:55:31;;;;;;;55.77;26.00;;;-1.30;99.90;;;;;;5037446;28;20185;-86
2021/03/11 06:58:14;;;;;;;64.70;27.93;;;-0.70;99.90;;;;;;5037173;28;20179;-86
2021/03/11 07:00:40;;;;;;;60.93;26.07;;;-1.30;99.90;;;;;;5036937;28;20231;-86
2021/03/11 07:03:06;;;;;;;48.27;22.97;;;-1.30;99.90;;;;;;5036751;28;20196;-86
2021/03/11 07:05:41;;;;;;;51.10;24.00;;;-0.60;99.90;;;;;;5020782;28;20639;-86
2021/03/11 07:08:09;;;;;;;43.37;21.43;;;-1.30;99.90;;;;;;5054658;28;20198;-86
2021/03/11 07:10:36;;;;;;;56.10;24.07;;;-1.20;99.90;;;;;;5055257;28;20187;-86
2021/03/11 07:13:03;;;;;;;46.83;23.27;;;0.10;99.90;;;;;;5030680;28;20195;-87
2021/03/11 07:15:31;;;;;;;55.70;25.17;;;-1.10;99.90;;;;;;5048239;28;20225;-86
2021/03/11 07:17:58;;;;;;;47.80;23.30;;;-1.00;99.90;;;;;;5021977;28;20176;-86
2021/03/11 07:20:28;;;;;;;48.63;22.57;;;-0.90;99.90;;;;;;5037103;28;20249;-86
2021/03/11 07:23:11;;;;;;;47.23;21.13;;;-0.80;99.90;;;;;;5034751;28;20246;-85
2021/03/11 07:25:47;;;;;;;55.90;21.93;;;-0.20;99.90;;;;;;5016912;28;20185;-86
2021/03/11 07:28:29;;;;;;;58.63;23.83;;;-0.80;99.90;;;;;;5000647;28;20412;-85
2021/03/11 07:30:58;;;;;;;48.50;22.37;;;-0.90;99.90;;;;;;5016440;28;20670;-86
2021/03/11 07:33:29;;;;;;;55.53;23.07;;;-0.80;99.90;;;;;;5016506;28;20315;-86
2021/03/11 07:35:57;;;;;;;53.03;24.70;;;0.80;99.90;;;;;;5040913;28;20177;-85
2021/03/11 07:38:25;;;;;;;59.10;25.67;;;0.20;99.90;;;;;;5001919;28;20253;-86
2021/03/11 07:40:53;;;;;;;52.13;22.13;;;-0.70;99.90;;;;;;5016451;28;20207;-87
2021/03/11 07:43:20;;;;;;;50.33;22.20;;;0.00;99.90;;;;;;5048502;28;20191;-87
2021/03/11 07:45:46;;;;;;;46.70;21.03;;;0.50;99.90;;;;;;5018592;28;20184;-86
2021/03/11 07:48:13;;;;;;;50.70;22.10;;;1.50;99.90;;;;;;5001252;28;20582;-85
2021/03/11 07:50:43;;;;;;;47.57;21.30;;;1.00;99.90;;;;;;5001632;28;20644;-87
2021/03/11 07:53:09;;;;;;;53.20;23.77;;;-1.00;99.90;;;;;;5052274;28;20175;-86
2021/03/11 07:55:35;;;;;;;59.47;25.73;;;-0.90;99.90;;;;;;5017614;28;20180;-86
2021/03/11 07:58:12;;;;;;;56.07;23.50;;;0.50;99.90;;;;;;5033882;28;20242;-86
2021/03/11 08:00:38;;;;;;;43.97;19.43;;;0.90;99.90;;;;;;5034124;28;20231;-87
2021/03/11 08:03:09;;;;;;;47.63;20.77;;;-1.20;99.90;;;;;;5035779;28;20191;-86
2021/03/11 08:05:35;;;;;;;47.30;21.13;;;-1.20;99.90;;;;;;5035954;28;20186;-88
2021/03/11 08:08:14;;;;;;;55.53;23.87;;;-1.10;99.90;;;;;;5035437;28;20210;-88
2021/03/11 08:10:46;;;;;;;43.73;19.27;;;0.80;99.90;;;;;;5035458;28;20641;-90
2021/03/11 08:13:30;;;;;;;64.83;24.60;;;-0.70;99.90;;;;;;5023651;28;20179;-88
2021/03/11 08:15:56;;;;;;;64.70;26.00;;;-0.40;99.90;;;;;;5029382;28;20250;-89
2021/03/11 08:18:34;;;;;;;79.20;31.03;;;-0.20;99.90;;;;;;5032394;28;20235;-90
2021/03/11 08:21:27;;;;;;;54.60;23.80;;;-0.10;99.90;;;;;;5017759;28;20640;-86
2021/03/11 08:23:57;;;;;;;50.77;21.57;;;0.10;99.90;;;;;;5036402;28;20182;-90
2021/03/11 08:26:38;;;;;;;44.23;19.90;;;0.20;99.90;;;;;;5042876;28;20236;-89
2021/03/11 08:29:19;;;;;;;46.37;20.67;;;1.50;99.90;;;;;;5026072;28;20242;-87
2021/03/11 08:31:48;;;;;;;49.97;22.73;;;0.20;99.90;;;;;;5028497;28;20186;-90
2021/03/11 08:34:46;;;;;;;50.27;21.03;;;0.30;99.90;;;;;;5043000;28;20275;-89
2021/03/11 08:37:14;;;;;;;49.03;21.93;;;0.30;99.90;;;;;;4958320;28;20683;-88
2021/03/11 08:39:40;;;;;;;44.70;18.97;;;0.30;99.90;;;;;;5022685;28;20179;-89
2021/03/11 08:42:41;;;;;;;60.20;24.73;;;0.40;99.90;;;;;;5006738;28;20187;-88
2021/03/11 08:45:07;;;;;;;46.63;20.50;;;0.40;99.90;;;;;;5041291;28;20184;-87
2021/03/11 08:47:33;;;;;;;48.10;22.63;;;0.40;99.90;;;;;;5038784;28;20203;-88
2021/03/11 08:49:59;;;;;;;55.90;22.70;;;0.50;99.90;;;;;;5010161;28;20191;-87
2021/03/11 08:52:44;;;;;;;47.37;19.47;;;0.70;99.90;;;;;;5041405;28;20229;-86
2021/03/11 08:55:32;;;;;;;43.17;19.30;;;1.50;99.90;;;;;;5042772;28;20176;-88
2021/03/11 08:57:59;;;;;;;46.30;19.47;;;0.80;99.90;;;;;;5041434;28;20632;-86
2021/03/11 09:00:55;;;;;;;41.60;18.20;;;1.70;99.90;;;;;;5014985;28;20699;-89
2021/03/11 09:03:44;;;;;;;38.63;18.13;;;0.90;99.90;;;;;;5032859;28;20196;-89
2021/03/11 09:06:12;;;;;;;40.20;19.63;;;0.90;99.90;;;;;;5032851;28;20218;-88
2021/03/11 09:08:52;;;;;;;39.20;17.07;;;0.90;99.90;;;;;;5032691;28;20181;-88
2021/03/11 09:11:23;;;;;;;29.70;14.87;;;0.80;99.90;;;;;;5013412;28;20270;-89
2021/03/11 09:13:53;;;;;;;45.03;19.13;;;1.10;99.90;;;;;;5031578;28;20170;-88
2021/03/11 09:16:27;;;;;;;40.27;18.23;;;2.70;99.90;;;;;;5030669;28;20183;-87
2021/03/11 09:19:02;;;;;;;38.27;16.83;;;1.00;99.90;;;;;;5031538;28;20182;-89
2021/03/11 09:21:35;;;;;;;32.97;16.73;;;1.10;99.90;;;;;;5012284;28;20174;-87
2021/03/11 09:24:02;;;;;;;27.77;13.40;;;1.10;99.90;;;;;;4998344;28;20211;-88
2021/03/11 09:26:33;;;;;;;35.47;16.90;;;1.20;99.90;;;;;;5015554;28;20299;-89
2021/03/11 09:28:59;;;;;;;33.57;16.10;;;2.10;99.90;;;;;;5034620;28;20215;-87
2021/03/11 09:31:27;;;;;;;34.77;16.57;;;2.30;99.90;;;;;;5015388;28;20180;-89
2021/03/11 09:33:57;;;;;;;38.67;17.87;;;1.60;99.90;;;;;;5015452;28;20277;-88
2021/03/11 09:36:23;;;;;;;33.97;15.63;;;2.10;99.90;;;;;;5015328;28;20230;-87
2021/03/11 09:38:51;;;;;;;37.10;17.50;;;2.20;99.90;;;;;;5015636;28;20250;-89
2021/03/11 09:41:27;;;;;;;34.00;18.50;;;1.90;99.90;;;;;;5015275;28;20187;-88
2021/03/11 09:43:53;;;;;;;30.90;16.67;;;1.80;99.90;;;;;;5033339;28;20164;-87
2021/03/11 09:46:21;;;;;;;29.57;15.90;;;2.80;99.90;;;;;;5032827;28;20191;-88
2021/03/11 09:48:48;;;;;;;33.27;16.90;;;2.60;99.90;;;;;;5015404;28;20216;-86
2021/03/11 09:51:25;;;;;;;38.50;17.33;;;3.40;99.90;;;;;;5032736;28;20668;-88
2021/03/11 09:53:59;;;;;;;37.93;18.03;;;2.00;99.90;;;;;;5015392;28;20180;-87
2021/03/11 09:56:40;;;;;;;30.70;17.00;;;2.00;99.90;;;;;;5035320;28;20176;-89
2021/03/11 09:59:08;;;;;;;36.63;17.53;;;2.10;99.90;;;;;;5015143;28;20172;-88
2021/03/11 10:01:40;;;;;;;32.57;16.40;;;2.20;99.90;;;;;;5032598;28;20161;-89
2021/03/11 10:04:13;;;;;;;36.47;17.97;;;3.70;99.30;;;;;;5033085;28;20180;-89
2021/03/11 10:06:54;;;;;;;35.20;15.40;;;2.30;99.30;;;;;;5015147;28;20239;-89
2021/03/11 10:09:21;;;;;;;34.23;16.73;;;2.30;99.90;;;;;;5015058;28;20254;-87
2021/03/11 10:11:49;;;;;;;36.30;17.43;;;3.50;99.90;;;;;;5016328;28;20181;-88
2021/03/11 10:14:21;;;;;;;36.03;17.70;;;2.40;99.00;;;;;;5036986;28;20272;-88
2021/03/11 10:16:52;;;;;;;32.63;14.97;;;2.40;99.60;;;;;;5017400;28;20234;-89
2021/03/11 10:19:20;;;;;;;52.47;21.37;;;2.30;99.00;;;;;;5015933;28;20629;-88
2021/03/11 10:22:07;;;;;;;42.13;18.40;;;2.70;99.90;;;;;;5026098;28;20181;-86
2021/03/11 10:24:38;;;;;;;38.60;19.33;;;2.40;97.90;;;;;;5047443;28;20169;-87
2021/03/11 10:27:26;;;;;;;35.73;18.40;;;2.50;97.70;;;;;;5052902;28;20270;-84
2021/03/11 10:30:10;;;;;;;34.87;17.20;;;2.60;95.80;;;;;;5038068;28;20193;-86
2021/03/11 10:32:37;;;;;;;37.87;19.10;;;2.60;93.60;;;;;;5025575;28;20216;-90
2021/03/11 10:35:05;;;;;;;45.87;20.33;;;2.50;93.50;;;;;;5042812;28;20204;-88
2021/03/11 10:37:33;;;;;;;39.10;19.50;;;2.60;94.40;;;;;;5016430;28;20189;-92
2021/03/11 10:40:05;;;;;;;39.00;18.37;;;2.70;94.50;;;;;;5059864;28;20229;-90
2021/03/11 10:42:47;;;;;;;47.20;20.97;;;2.70;93.80;;;;;;5057190;28;20174;-87
2021/03/11 10:45:15;;;;;;;66.80;26.77;;;2.80;94.80;;;;;;5034845;28;20182;-89
2021/03/11 10:47:44;;;;;;;44.53;18.77;;;2.60;94.50;;;;;;5036596;28;20224;-89
2021/03/11 10:50:21;;;;;;;40.23;18.77;;;3.60;93.80;;;;;;5002577;28;20188;-91
2021/03/11 10:52:48;;;;;;;50.03;21.27;;;3.40;93.80;;;;;;5019201;28;20176;-90
2021/03/11 10:55:25;;;;;;;42.50;21.37;;;2.80;93.80;;;;;;5018022;28;20271;-91
2021/03/11 10:57:51;;;;;;;57.27;26.07;;;2.90;93.80;;;;;;5017763;28;20268;-88
2021/03/11 11:00:22;;;;;;;54.50;25.17;;;3.00;93.40;;;;;;5001314;28;20319;-87
2021/03/11 11:02:53;;;;;;;43.40;19.33;;;2.80;93.60;;;;;;5035634;28;20216;-89
2021/03/11 11:05:18;;;;;;;55.50;20.57;;;2.80;93.00;;;;;;5017509;28;20254;-86
2021/03/11 11:07:44;;;;;;;41.37;19.90;;;2.80;93.30;;;;;;5000787;28;20662;-88
2021/03/11 11:10:10;;;;;;;39.53;19.10;;;3.90;93.90;;;;;;5017256;28;20230;-86
2021/03/11 11:12:36;;;;;;;42.13;20.40;;;2.80;94.00;;;;;;5017283;28;20205;-86
2021/03/11 11:15:02;;;;;;;42.87;19.67;;;2.80;94.30;;;;;;4999476;28;20548;-88
2021/03/11 11:17:28;;;;;;;41.22;21.00;;;2.80;93.80;;;;;;5024839;28;20428;-88
2021/03/11 11:19:54;;;;;;;37.77;19.83;;;2.90;94.50;;;;;;5000428;28;20177;-87
2021/03/11 11:22:19;;;;;;;33.47;19.00;;;2.90;94.40;;;;;;5016369;28;20188;-86
2021/03/11 11:24:45;;;;;;;41.30;20.23;;;2.90;94.20;;;;;;5016821;28;20177;-85
2021/03/11 11:27:13;;;;;;;44.53;22.20;;;3.10;94.10;;;;;;5017903;28;20563;-86
2021/03/11 11:29:39;;;;;;;32.73;17.87;;;2.90;94.10;;;;;;5017266;28;20506;-86
2021/03/11 11:32:06;;;;;;;34.63;17.77;;;3.00;91.80;;;;;;5036566;28;20607;-88
2021/03/11 11:34:31;;;;;;;49.13;19.77;;;3.00;92.30;;;;;;5023682;28;20324;-86
2021/03/11 11:36:57;;;;;;;38.43;18.33;;;3.20;91.80;;;;;;5044084;28;20664;-86
2021/03/11 11:39:23;;;;;;;35.00;17.77;;;3.20;91.50;;;;;;5050678;28;20212;-86
2021/03/11 11:41:50;;;;;;;37.90;19.30;;;3.20;91.10;;;;;;5027714;28;20182;-86
2021/03/11 11:44:17;;;;;;;43.27;19.33;;;4.30;91.60;;;;;;5025697;28;20511;-85
2021/03/11 11:46:43;;;;;;;37.03;19.53;;;3.40;90.70;;;;;;5005279;28;20205;-85
2021/03/11 11:49:09;;;;;;;42.47;19.93;;;3.30;90.90;;;;;;5025556;28;20192;-86
2021/03/11 11:51:35;;;;;;;38.83;18.47;;;3.20;91.20;;;;;;5008919;28;20199;-84
2021/03/11 11:54:01;;;;;;;34.73;18.27;;;3.20;90.50;;;;;;4995238;28;20201;-85
2021/03/11 11:56:27;;;;;;;30.00;16.17;;;3.40;90.20;;;;;;5026509;28;20184;-84
2021/03/11 11:58:52;;;;;;;33.13;17.60;;;3.40;89.50;;;;;;5010252;28;20172;-85
2021/03/11 12:01:18;;;;;;;37.70;18.27;;;3.60;90.30;;;;;;5019949;28;20231;-85
2021/03/11 12:03:44;;;;;;;38.43;18.57;;;3.70;90.00;;;;;;5036659;28;20181;-85
2021/03/11 12:06:10;;;;;;;40.07;20.07;;;3.70;87.90;;;;;;5046653;28;20177;-84
2021/03/11 12:08:36;;;;;;;35.63;19.20;;;3.70;88.70;;;;;;5026306;28;20212;-88
2021/03/11 12:11:02;;;;;;;44.37;19.53;;;3.80;89.10;;;;;;5005143;28;20191;-86
2021/03/11 12:13:28;;;;;;;40.50;20.00;;;3.70;90.10;;;;;;4999612;28;20603;-84
2021/03/11 12:15:54;;;;;;;38.87;18.60;;;3.70;89.90;;;;;;5002391;28;20182;-84
2021/03/11 12:18:19;;;;;;;36.10;18.13;;;3.70;89.20;;;;;;5008574;28;20204;-84
2021/03/11 12:20:45;;;;;;;40.37;18.30;;;3.60;89.20;;;;;;5026373;28;20178;-85
2021/03/11 12:23:11;;;;;;;38.53;18.93;;;3.60;90.00;;;;;;5043611;28;20632;-85
2021/03/11 12:25:37;;;;;;;41.67;20.23;;;3.70;90.00;;;;;;5024697;28;20216;-85
2021/03/11 12:28:03;;;;;;;46.57;22.87;;;3.70;89.50;;;;;;5027620;28;20205;-85
2021/03/11 12:30:30;;;;;;;45.53;20.67;;;3.80;89.90;;;;;;5043143;28;20172;-85
2021/03/11 12:32:56;;;;;;;40.90;18.47;;;3.90;88.40;;;;;;5044266;28;20640;-84